Tropical Cyclones
[Index]
Main Index Home Page Stock Weather Photos Extreme Storms Discussion Storm News and Storm Chasing Reports Tropical Cyclones / Hurricanes / Typhoons Weather Data and Links Wild Fires / Bushfires Weather Observation Techniques Weather Picture Catalogue Tornado Pictures and Reports Stock Video Footage and DVDs for sale
Season 2002-2003 Tropical Cyclone FIONA Track Map
Season 2002-2003 Summaries: [BoM-AU] [JTWC-AU] [JTWC-SIO] [JTWC-SPAC] [JTWC-SH]
<<- Previous TC | BoM 2002-2003 Season | Next TC ->>

click for intensity scale information  Lat/long Grid: Show Hide

 Date Labels: Show Hide

Bureau of Meteorology Tropical Cyclone Data

Name: FIONA
Number: 862 / 200203_02

03 Feb 2003 00:00 UTC to 13 Feb 2003 00:00 UTC

    date/time    lat    long    hPa   cat  kts
2003-02-03 00   11.8   117.4   1007         15          
2003-02-03 06   11.7   117.0   1006         20          
2003-02-03 12   11.7   116.6   1006         20          
2003-02-03 18   11.6   116.2   1005         20          
2003-02-04 00   11.6   115.6   1005         20          
2003-02-04 06   11.6   114.8   1004         25          
2003-02-04 12   11.7   113.9   1004         25          
2003-02-04 18   11.7   113.1   1002         30          
2003-02-05 00   11.8   112.4   1000         30          
2003-02-05 06   11.8   111.8    995    1    35          
2003-02-05 12   11.9   111.3    990    1    35          
2003-02-05 18   12.0   110.7    985    2    45          
2003-02-06 00   11.9   110.1    980    2    55          
2003-02-06 06   11.9   109.4    980    2    55          
2003-02-06 12   12.0   108.7    975    2    55          
2003-02-06 18   12.0   108.0    975    2    60          
2003-02-07 00   12.1   107.1    975    2    60          
2003-02-07 06   12.3   106.3    970    3    65          
2003-02-07 12   12.5   105.4    965    3    70          
2003-02-07 18   13.0   104.6    965    3    75          
2003-02-08 00   13.3   103.7    960    3    80          
2003-02-08 06   13.8   102.7    955    4    80          
2003-02-08 12   14.2   101.8    955    4    85          
2003-02-08 18   14.8   100.9    950    4    85          
2003-02-09 00   15.3   100.0    940    4    90          
2003-02-09 06   15.9    98.9    935    4    95          
2003-02-09 12   16.4    97.7    940    4    90          
2003-02-09 18   16.5    96.4    940    4    90          
2003-02-10 00   16.6    95.3    940    4    90          
2003-02-10 06   16.7    94.2    940    4    90          
2003-02-10 12   16.9    93.1    945    4    85          
2003-02-10 18   17.3    92.3    950    4    80          
2003-02-11 00   17.6    91.8    960    3    75          
2003-02-11 06   18.0    91.2    965    3    70          
2003-02-11 12   18.4    91.1    965    3    65          
2003-02-11 18   19.1    90.9    970    3    65          
2003-02-12 00   19.9    90.9    975    2    60          
2003-02-12 06   20.8    91.3    985    2    50          
2003-02-12 12   21.2    91.9    995    1    40          
2003-02-12 18   21.6    92.0   1000         30          
2003-02-13 00   21.9    92.2   1005         25          
Winds are 10-min average.

Tropical cyclone tracks developed by Michael Bath using data from the Bureau of Meteorology and Google Maps.


[Australian Severe Weather index] [Copyright Notice] [Email Contacts] [Search This Site] [Privacy Policy]
Document: tropical_cyclone_fiona.htm Updated: 29 June 2017